Cross Plains, WI (53528)

1:45 AM CDT on August 30, 2015 (GMT -0500)
St. Francis | | Change Station
CLOSE
Current Station
Personal Weather Station
Location: Cross Plains, WI
Elevation: 928 ft
Nearby Weather Stations

Elev 928 ft 43.12 °N, 89.64 °W | Updated 1 second ago

Overcast
Overcast
63.2 °F
Feels Like 63.2 °F
N
0.0
Wind Variable Wind from NE
Gusts 0.0 mph

Today
High -- | Low -- °F
--% Chance of Precip.
Yesterday
High -- | Low -- °F
Precip. -- in
6:20 AM 7:37 PM
Full, 100% visible
Pressure 30.05 in
Visibility 4.0 miles
Clouds Overcast 2100 ft
Dew Point 62 °F
Humidity 96%
Rainfall 0.00 in
Snow Depth Not available.
UV 0 out of 12
Pollen 4.60 out of 12
Air Quality Not available.
Flu Activity Not available.
METAR KC29 300635Z AUTO 00000KT 4SM OVC021 18/18 A3005 RMK AO1 T01820180
Pressure 30.05 in
Visibility 4.0 miles
Clouds Overcast 2100 ft
Dew Point 62 °F
Humidity 96%
Rainfall 0.00 in
Snow Depth Not available.
UV 0 out of 12
Pollen 4.60 out of 12
Air Quality Not available.
Flu Activity Not available.
METAR KC29 300635Z AUTO 00000KT 4SM OVC021 18/18 A3005 RMK AO1 T01820180

10-Day Weather Forecast

×

Almanac

Astronomy

Aug. 30, 2015 Rise Set
Actual Time
Civil Twilight
Nautical Twilight
Astronomical Twilight
Moon
Length of Visible Light
Length of Day
Tomorrow will be .
, % of the Moon is Illuminated

Today's Extremes

State Highs State Lows

Community

WunderPhotos

Upload Photos

1,850,904 photos uploaded!

WunderBlogs® & News

Nearby

Air Quality

  Air Quality AQ Index Pollutant
Not available.

Snow Depth

Station Depth Elevation

Earthquake Activity

City Distance Mag. Time & Date
Minimum magnitude displayed is 2.5.

Coastal Water Temperatures

Place Temperature

Stations

Nearby Weather Stations

Station Location Temp. Windchill Dew Point Humidity Wind Precip. Elev Updated Type